Aeroporto :
LOGIN :

Iscrizione | Disclaimer

   EN    FR    IT 

 










Sommario :    VFR   VFR Marginale   IFR   IFR Intensivo   IFR Molto Intensivo
Visibilità : 
Base nubi : 
>= 8 km
>= 3000ft
5 / 8 km
1000 / 3000 ft
1500m / 5 km
500 / 1000 ft
800 / 1500m
200 / 500 ft
< 800m
< 200 ft
Simboli :   Temporali  Nebbia  Neve Forte  Precipitazioni Forti  Vento > 20 kt
SIGMETs :   Varie  Temporali  Ghiacco  Turbolenza  Onda orograficha  Ceneri Vulcaniche






- Altitudine del aeroporto : 296 ft
- Codice IATA : GKE


ETNG - Geilenkirchen

ULTIMO METAR :
  • 281050Z 23006KT 9999 FEW007 BKN015 BKN035 09/08 Q1010 TEMPO -DZ BKN008

METARs OBSOLETI :
  • 280950Z 23006KT 8000 -RA BKN011 08/07 Q1010 TEMPO BKN007
  • 280850Z 21005KT 4000 -RADZ SCT007 BKN011 08/07 Q1010 TEMPO BKN007
  • 280800Z 22005KT 4000 -DZ SCT007 BKN013 08/06 Q1010 TEMPO BKN007

TAF TAF ETNG
Valido dal 28 a 09 ore il 29 a 00 ore UTC


280800Z 2809/2824 20007KT 9999 BKN012
TEMPO 2809/2813 3500 DZRA BKN007
BECMG 2813/2815 BKN017 BKN060
BECMG 2819/2821 BKN012
PROB40
TEMPO 2821/2824 5000 -RA BKN006



MetMap, La meteo Aeronautica in un colpo d'occhio ! - Copyright ORBIFLY Dicembre 2007 - Disclaimer

ORBIFLY MET'MAP TEAM :

Programmazione e sviluppo : Alexandra Zaïnal
Concezione : Baudouin d'Aumeries
Supporto tecnico e logistico : Manuel Goepfert
Aiuto : Marc-Olivier Méhu
Aiuto per la traduzione : Arnaldo La Scala




FONTI E CREDITI :

   NOAA